Time;durP1;ratioP1;P1;durP2;ratioP2;P2;SDS_P1;SDS_P2;PMS_P1;PMS_P2;Temp;Humidity;BMP_temperature;BMP_pressure;BME280_temperature;BME280_humidity;BME280_pressure;Samples;Min_cycle;Max_cycle;Signal;HPM_P1;HPM_P2
2021/12/20 00:01:37;;;;;;;27.33;15.67;;;2.20;99.90;;;;;;5071625;28;20293;-74
2021/12/20 00:04:02;;;;;;;26.07;14.57;;;2.20;99.90;;;;;;5071819;28;20201;-75
2021/12/20 00:06:28;;;;;;;26.47;14.97;;;2.30;99.90;;;;;;5071519;28;20605;-75
2021/12/20 00:08:54;;;;;;;27.20;16.10;;;2.40;99.90;;;;;;5071489;28;20171;-74
2021/12/20 00:11:19;;;;;;;28.23;15.63;;;2.50;99.90;;;;;;5070929;28;20343;-75
2021/12/20 00:13:45;;;;;;;28.07;16.33;;;2.40;99.90;;;;;;5071206;28;20541;-76
2021/12/20 00:16:10;;;;;;;27.80;16.20;;;2.40;99.90;;;;;;5071678;28;20174;-74
2021/12/20 00:18:36;;;;;;;25.80;15.53;;;2.30;99.90;;;;;;5071541;28;20206;-76
2021/12/20 00:21:01;;;;;;;27.93;15.70;;;2.30;99.90;;;;;;5070934;28;20281;-75
2021/12/20 00:23:27;;;;;;;25.53;15.47;;;2.40;99.90;;;;;;5071287;28;20210;-74
2021/12/20 00:25:53;;;;;;;25.97;15.80;;;2.30;99.90;;;;;;5071739;28;20174;-75
2021/12/20 00:28:19;;;;;;;28.63;16.23;;;2.40;99.90;;;;;;5071520;28;20178;-75
2021/12/20 00:30:46;;;;;;;28.07;16.00;;;2.30;99.90;;;;;;5070935;28;20198;-74
2021/12/20 00:33:12;;;;;;;31.37;16.53;;;2.30;99.90;;;;;;5071467;28;20194;-74
2021/12/20 00:35:38;;;;;;;25.93;15.57;;;2.30;99.90;;;;;;5071409;28;20182;-76
2021/12/20 00:40:48;;;;;;;25.43;16.03;;;2.30;99.90;;;;;;5070953;28;20240;-75
2021/12/20 00:43:14;;;;;;;28.70;16.57;;;2.20;99.90;;;;;;5071379;28;20210;-75
2021/12/20 00:45:40;;;;;;;29.67;16.03;;;2.20;99.90;;;;;;5071294;28;20193;-75
2021/12/20 00:48:07;;;;;;;28.77;15.67;;;2.30;99.90;;;;;;5071293;28;20623;-76
2021/12/20 00:50:33;;;;;;;28.30;15.40;;;2.40;99.90;;;;;;5070495;28;20209;-74
2021/12/20 00:52:59;;;;;;;27.67;15.97;;;2.40;99.90;;;;;;5071425;28;20182;-74
2021/12/20 00:55:26;;;;;;;26.97;15.47;;;2.40;99.90;;;;;;5071844;28;20228;-74
2021/12/20 00:57:54;;;;;;;27.10;15.80;;;2.30;99.90;;;;;;5071080;28;20619;-75
2021/12/20 01:00:29;;;;;;;24.57;15.30;;;2.10;99.90;;;;;;5070618;28;20229;-75
2021/12/20 01:02:56;;;;;;;27.40;15.67;;;2.20;99.90;;;;;;5070850;28;20210;-74
2021/12/20 01:05:22;;;;;;;26.87;16.67;;;2.20;99.90;;;;;;5071472;28;20182;-74
2021/12/20 01:07:48;;;;;;;26.63;15.43;;;2.10;99.90;;;;;;5071213;28;20563;-74
2021/12/20 01:10:16;;;;;;;26.73;15.80;;;2.10;99.90;;;;;;5052529;28;20679;-74
2021/12/20 01:12:45;;;;;;;26.03;15.50;;;2.10;99.90;;;;;;5071017;28;20182;-74
2021/12/20 01:15:14;;;;;;;24.70;14.47;;;2.20;99.90;;;;;;5070919;28;20636;-74
2021/12/20 01:17:40;;;;;;;27.50;15.97;;;2.20;99.90;;;;;;5070812;28;20186;-75
2021/12/20 01:20:07;;;;;;;26.70;16.03;;;2.10;99.90;;;;;;5070947;28;20339;-74
2021/12/20 01:22:33;;;;;;;25.60;15.30;;;2.10;99.90;;;;;;5071001;28;20699;-74
2021/12/20 01:24:58;;;;;;;28.63;15.40;;;2.10;99.90;;;;;;5073981;28;20200;-75
2021/12/20 01:27:24;;;;;;;25.20;15.70;;;2.00;99.90;;;;;;5074725;28;20174;-75
2021/12/20 01:29:49;;;;;;;27.87;15.63;;;2.10;99.90;;;;;;5073741;28;20215;-73
2021/12/20 01:32:15;;;;;;;25.37;14.87;;;2.10;99.90;;;;;;5074404;28;20174;-76
2021/12/20 01:34:41;;;;;;;26.97;16.27;;;2.00;99.90;;;;;;5074616;28;20252;-74
2021/12/20 01:37:07;;;;;;;30.80;15.80;;;2.10;99.90;;;;;;5074397;28;20204;-75
2021/12/20 01:39:32;;;;;;;27.20;15.47;;;2.10;99.90;;;;;;5056037;28;20186;-75
2021/12/20 01:41:59;;;;;;;27.70;16.10;;;2.10;99.90;;;;;;5074256;28;20306;-74
2021/12/20 01:44:25;;;;;;;29.03;15.77;;;2.10;99.90;;;;;;5074356;28;20163;-74
2021/12/20 01:46:51;;;;;;;27.90;15.83;;;2.10;99.90;;;;;;5074183;28;20229;-74
2021/12/20 01:49:17;;;;;;;24.83;15.07;;;2.00;99.90;;;;;;5073983;28;20532;-74
2021/12/20 01:54:10;;;;;;;25.73;14.63;;;2.10;99.90;;;;;;5074303;28;20571;-73
2021/12/20 01:56:39;;;;;;;26.07;15.40;;;2.00;99.90;;;;;;5074130;28;20185;-74
2021/12/20 01:59:06;;;;;;;28.97;15.67;;;2.10;99.90;;;;;;5073885;28;20174;-73
2021/12/20 02:01:32;;;;;;;27.30;15.57;;;2.20;99.90;;;;;;5073245;28;20560;-73
2021/12/20 02:04:01;;;;;;;28.13;15.47;;;2.10;99.90;;;;;;5074111;28;20240;-74
2021/12/20 02:08:56;;;;;;;22.93;13.47;;;2.10;99.90;;;;;;5073769;28;20171;-73
2021/12/20 02:11:22;;;;;;;26.10;14.90;;;2.10;99.90;;;;;;5073468;28;20194;-73
2021/12/20 02:13:49;;;;;;;25.20;14.63;;;2.10;99.90;;;;;;5073583;28;20678;-73
2021/12/20 02:16:15;;;;;;;28.23;15.53;;;2.10;99.90;;;;;;5073921;28;20608;-73
2021/12/20 02:18:40;;;;;;;26.43;15.27;;;2.10;99.90;;;;;;5073894;28;20264;-73
2021/12/20 02:21:06;;;;;;;27.53;15.03;;;2.20;99.90;;;;;;5073140;28;20187;-74
2021/12/20 02:23:32;;;;;;;23.83;14.43;;;2.10;99.90;;;;;;5073491;28;20607;-73
2021/12/20 02:25:59;;;;;;;30.33;15.50;;;2.10;99.90;;;;;;5073384;28;20178;-74
2021/12/20 02:28:25;;;;;;;26.30;14.87;;;2.10;99.90;;;;;;5073354;28;20178;-73
2021/12/20 02:38:46;;;;;;;26.23;14.20;;;2.00;99.90;;;;;;5073344;28;20174;-73
2021/12/20 02:41:21;;;;;;;24.77;14.90;;;2.10;99.90;;;;;;5073073;28;20225;-74
2021/12/20 02:43:55;;;;;;;24.77;14.30;;;2.20;99.90;;;;;;5073423;28;20190;-73
2021/12/20 02:49:01;;;;;;;23.30;14.47;;;2.10;99.90;;;;;;5072953;28;20198;-73
2021/12/20 02:51:27;;;;;;;26.13;14.20;;;2.20;99.90;;;;;;5072361;28;20336;-73
2021/12/20 02:53:55;;;;;;;24.37;14.13;;;2.10;99.90;;;;;;5073132;28;20178;-74
2021/12/20 02:56:20;;;;;;;27.47;14.73;;;2.20;99.90;;;;;;5073028;28;20205;-73
2021/12/20 02:58:46;;;;;;;23.50;14.33;;;2.10;99.90;;;;;;5073027;28;20205;-74
2021/12/20 03:01:12;;;;;;;24.77;15.67;;;2.20;99.90;;;;;;5072249;28;20245;-73
2021/12/20 03:03:38;;;;;;;24.30;14.13;;;2.20;99.90;;;;;;5072692;28;20214;-74
2021/12/20 03:06:18;;;;;;;24.13;14.67;;;2.10;99.90;;;;;;5072340;28;20166;-74
2021/12/20 03:08:47;;;;;;;26.17;15.23;;;2.20;99.90;;;;;;5072509;28;20635;-74
2021/12/20 03:11:13;;;;;;;24.07;13.67;;;2.20;99.90;;;;;;5071596;28;20273;-74
2021/12/20 03:13:39;;;;;;;25.83;14.77;;;2.20;99.90;;;;;;5072590;28;20613;-74
2021/12/20 03:16:05;;;;;;;23.73;14.77;;;2.20;99.90;;;;;;5072322;28;20244;-74
2021/12/20 03:18:31;;;;;;;25.03;14.50;;;2.30;99.90;;;;;;5072227;28;20308;-73
2021/12/20 03:20:57;;;;;;;23.53;14.20;;;2.60;99.90;;;;;;5071969;28;20285;-74
2021/12/20 03:23:22;;;;;;;23.40;14.10;;;2.30;99.90;;;;;;5072243;28;20307;-73
2021/12/20 03:25:48;;;;;;;23.17;13.90;;;2.20;99.90;;;;;;5072125;28;20178;-74
2021/12/20 03:28:13;;;;;;;25.33;15.03;;;2.20;99.90;;;;;;5072027;28;20178;-74
2021/12/20 03:30:39;;;;;;;24.40;14.67;;;2.10;99.90;;;;;;5071520;28;20654;-73
2021/12/20 03:33:05;;;;;;;27.37;14.70;;;2.10;99.90;;;;;;5071941;28;20182;-74
2021/12/20 03:35:30;;;;;;;23.40;14.53;;;2.20;99.90;;;;;;5072267;28;20186;-74
2021/12/20 03:37:56;;;;;;;26.83;15.60;;;2.10;99.90;;;;;;5071921;28;20609;-74
2021/12/20 03:40:22;;;;;;;27.20;15.63;;;2.20;99.90;;;;;;5071171;28;20281;-74
2021/12/20 03:42:48;;;;;;;26.97;15.67;;;2.20;99.90;;;;;;5071884;28;20302;-74
2021/12/20 03:45:15;;;;;;;26.17;14.27;;;2.20;99.90;;;;;;5071752;28;20178;-73
2021/12/20 03:47:41;;;;;;;28.73;15.23;;;2.30;99.90;;;;;;5071578;28;20170;-73
2021/12/20 03:50:08;;;;;;;24.43;13.63;;;2.20;99.90;;;;;;5070963;28;20204;-73
2021/12/20 03:52:36;;;;;;;30.00;15.10;;;2.30;99.90;;;;;;5072161;28;20688;-74
2021/12/20 03:55:02;;;;;;;29.27;15.70;;;2.40;99.90;;;;;;5071627;28;20677;-74
2021/12/20 03:57:27;;;;;;;23.73;13.50;;;2.40;99.90;;;;;;5071600;28;20183;-73
2021/12/20 03:59:53;;;;;;;26.37;14.93;;;2.40;99.90;;;;;;5070984;28;20209;-73
2021/12/20 04:02:21;;;;;;;26.07;14.53;;;2.40;99.90;;;;;;5071564;28;20221;-74
2021/12/20 04:04:47;;;;;;;26.93;15.23;;;2.40;99.90;;;;;;5071754;28;20182;-73
2021/12/20 04:07:13;;;;;;;24.77;14.43;;;2.20;99.90;;;;;;5071576;28;20181;-73
2021/12/20 04:09:38;;;;;;;30.00;15.77;;;2.20;99.90;;;;;;5071068;28;20170;-74
2021/12/20 04:12:04;;;;;;;26.37;15.03;;;2.30;99.90;;;;;;5071527;28;20177;-74
2021/12/20 04:14:30;;;;;;;26.37;14.63;;;2.20;99.90;;;;;;5071289;28;20174;-74
2021/12/20 04:16:55;;;;;;;28.17;15.30;;;2.10;99.90;;;;;;5071763;28;20231;-74
2021/12/20 04:19:21;;;;;;;24.50;13.60;;;2.00;99.90;;;;;;5070977;28;20170;-74
2021/12/20 04:21:46;;;;;;;27.63;15.10;;;1.90;99.90;;;;;;5071187;28;20565;-74
2021/12/20 04:24:12;;;;;;;27.07;15.27;;;2.10;99.90;;;;;;5071351;28;20185;-74
2021/12/20 04:26:38;;;;;;;26.70;15.50;;;2.10;99.90;;;;;;5071370;28;20549;-74
2021/12/20 04:29:03;;;;;;;25.40;14.80;;;2.10;99.90;;;;;;5071084;28;20170;-74
2021/12/20 04:31:29;;;;;;;23.47;14.43;;;2.10;99.90;;;;;;5070838;28;20187;-74
2021/12/20 04:33:55;;;;;;;27.13;16.10;;;2.10;99.90;;;;;;5071429;28;20181;-74
2021/12/20 04:36:20;;;;;;;23.73;15.27;;;2.20;99.90;;;;;;5071261;28;20649;-73
2021/12/20 04:38:46;;;;;;;27.47;15.53;;;2.10;99.90;;;;;;5071259;28;20663;-73
2021/12/20 04:41:13;;;;;;;24.70;14.53;;;2.10;99.90;;;;;;5070654;28;20198;-73
2021/12/20 04:43:38;;;;;;;28.80;14.67;;;2.10;99.90;;;;;;5070855;28;20217;-73
2021/12/20 04:46:04;;;;;;;25.37;14.70;;;2.20;99.90;;;;;;5071410;28;20170;-74
2021/12/20 04:48:29;;;;;;;25.37;14.53;;;2.20;99.90;;;;;;5071131;28;20213;-73
2021/12/20 04:50:55;;;;;;;23.20;14.20;;;2.10;99.90;;;;;;5070405;28;20233;-75
2021/12/20 04:53:21;;;;;;;25.90;14.40;;;2.10;99.90;;;;;;5071095;28;20178;-74
2021/12/20 04:55:46;;;;;;;30.13;14.63;;;2.10;99.90;;;;;;5070869;28;20627;-74
2021/12/20 04:58:12;;;;;;;23.27;14.33;;;2.10;99.90;;;;;;5071197;28;20182;-74
2021/12/20 05:00:40;;;;;;;25.97;15.13;;;2.10;99.90;;;;;;5074481;28;20206;-73
2021/12/20 05:03:07;;;;;;;25.53;14.87;;;2.10;99.90;;;;;;5074986;28;20217;-75
2021/12/20 05:05:33;;;;;;;27.90;14.77;;;2.10;99.90;;;;;;5074664;28;20643;-75
2021/12/20 05:08:00;;;;;;;29.70;15.60;;;2.20;99.90;;;;;;5074780;28;20210;-74
2021/12/20 05:10:33;;;;;;;31.70;16.07;;;2.10;99.90;;;;;;5074143;28;20222;-74
2021/12/20 05:13:04;;;;;;;30.07;14.97;;;2.20;99.90;;;;;;5074722;28;20253;-75
2021/12/20 05:15:30;;;;;;;28.97;14.33;;;2.10;99.90;;;;;;5074747;28;20182;-74
2021/12/20 05:17:56;;;;;;;28.33;14.83;;;2.00;99.90;;;;;;5074656;28;20175;-74
2021/12/20 05:20:22;;;;;;;27.10;15.20;;;1.90;99.90;;;;;;5074051;28;20187;-74
2021/12/20 05:22:48;;;;;;;31.13;19.53;;;1.90;99.90;;;;;;5074245;28;20549;-74
2021/12/20 05:25:14;;;;;;;29.57;16.00;;;2.00;99.90;;;;;;5074351;28;20623;-74
2021/12/20 05:27:40;;;;;;;29.70;15.90;;;2.00;99.90;;;;;;5074229;28;20262;-73
2021/12/20 05:30:08;;;;;;;30.83;16.03;;;2.00;99.90;;;;;;5073626;28;20281;-74
2021/12/20 05:32:34;;;;;;;25.73;15.47;;;2.00;99.90;;;;;;5074091;28;20179;-73
2021/12/20 05:34:59;;;;;;;28.43;15.23;;;2.00;99.90;;;;;;5074121;28;20530;-73
2021/12/20 05:37:25;;;;;;;27.63;15.13;;;2.10;99.90;;;;;;5073380;28;20494;-76
2021/12/20 05:39:51;;;;;;;30.57;16.63;;;2.00;99.90;;;;;;5073439;28;20205;-73
2021/12/20 05:42:16;;;;;;;27.03;14.57;;;2.10;99.90;;;;;;5074115;28;20214;-75
2021/12/20 05:44:42;;;;;;;33.10;17.43;;;2.10;99.90;;;;;;5074265;28;20174;-76
2021/12/20 05:47:07;;;;;;;27.33;16.27;;;2.10;99.90;;;;;;5074227;28;20631;-74
2021/12/20 05:49:33;;;;;;;31.23;16.40;;;2.10;99.90;;;;;;5073399;28;20643;-76
2021/12/20 05:52:03;;;;;;;30.80;18.30;;;2.10;99.90;;;;;;5074119;28;20183;-76
2021/12/20 05:54:29;;;;;;;30.23;16.30;;;2.00;99.90;;;;;;5074444;28;20170;-76
2021/12/20 05:56:54;;;;;;;27.70;16.53;;;2.10;99.90;;;;;;5074624;28;20184;-76
2021/12/20 05:59:20;;;;;;;28.70;16.23;;;2.10;99.90;;;;;;5073960;28;20232;-76
2021/12/20 06:01:45;;;;;;;27.63;15.77;;;2.20;99.90;;;;;;5074041;28;22076;-76
2021/12/20 06:04:11;;;;;;;30.30;16.47;;;2.10;99.90;;;;;;5073781;28;20541;-76
2021/12/20 06:06:36;;;;;;;31.40;16.37;;;2.00;99.90;;;;;;5073706;28;20178;-76
2021/12/20 06:09:02;;;;;;;29.17;17.07;;;2.10;99.90;;;;;;5073447;28;20186;-75
2021/12/20 06:11:28;;;;;;;29.80;16.40;;;2.20;99.90;;;;;;5073288;28;20194;-76
2021/12/20 06:13:54;;;;;;;29.23;16.63;;;2.20;99.90;;;;;;5073698;28;20179;-77
2021/12/20 06:16:19;;;;;;;29.03;16.33;;;2.20;99.90;;;;;;5073681;28;20259;-76
2021/12/20 06:18:45;;;;;;;27.60;16.40;;;2.00;99.90;;;;;;5073511;28;20217;-75
2021/12/20 06:21:11;;;;;;;26.87;15.87;;;2.10;99.90;;;;;;5073058;28;20277;-76
2021/12/20 06:23:36;;;;;;;27.40;15.40;;;2.20;99.90;;;;;;5073214;28;20210;-76
2021/12/20 06:26:02;;;;;;;28.13;15.90;;;2.30;99.90;;;;;;5073507;28;20268;-76
2021/12/20 06:28:29;;;;;;;31.90;15.20;;;2.30;99.90;;;;;;5073488;28;20175;-75
2021/12/20 06:30:55;;;;;;;30.97;15.67;;;2.20;99.90;;;;;;5072736;28;20197;-76
2021/12/20 06:33:21;;;;;;;29.97;15.57;;;2.10;99.90;;;;;;5073401;28;20178;-76
2021/12/20 06:35:46;;;;;;;30.17;16.17;;;2.20;99.90;;;;;;5073147;28;20175;-76
2021/12/20 06:38:18;;;;;;;31.67;16.77;;;2.30;99.90;;;;;;5073065;28;20178;-75
2021/12/20 06:40:44;;;;;;;29.17;15.23;;;2.10;99.90;;;;;;5072642;28;20206;-76
2021/12/20 06:43:10;;;;;;;31.57;15.07;;;2.20;99.90;;;;;;5072921;28;20722;-75
2021/12/20 06:45:36;;;;;;;29.27;15.07;;;2.10;99.90;;;;;;5073176;28;20266;-76
2021/12/20 06:48:02;;;;;;;26.63;15.70;;;2.10;99.90;;;;;;5072777;28;20202;-74
2021/12/20 06:50:28;;;;;;;31.53;16.93;;;2.20;99.90;;;;;;5072102;28;20210;-75
2021/12/20 06:52:55;;;;;;;28.90;15.40;;;2.10;99.90;;;;;;5072684;28;20183;-75
2021/12/20 06:55:20;;;;;;;28.93;16.00;;;2.20;99.90;;;;;;5115945;22;20232;-77
2021/12/20 06:57:46;;;;;;;30.43;16.00;;;2.10;99.90;;;;;;5095480;28;20169;-77
2021/12/20 07:00:12;;;;;;;30.40;16.67;;;2.20;99.90;;;;;;5105051;28;20199;-76
2021/12/20 07:02:38;;;;;;;29.93;17.67;;;2.10;99.90;;;;;;5115586;28;20285;-76
2021/12/20 07:05:04;;;;;;;28.10;16.03;;;2.20;99.90;;;;;;5114105;27;20189;-73
2021/12/20 07:07:30;;;;;;;32.80;19.23;;;2.30;99.90;;;;;;5116168;28;20683;-78
2021/12/20 07:09:56;;;;;;;34.87;19.53;;;2.50;99.90;;;;;;5117157;28;20222;-74
2021/12/20 07:12:22;;;;;;;28.30;16.67;;;2.40;99.90;;;;;;5117592;28;20188;-75
2021/12/20 07:14:50;;;;;;;28.53;15.50;;;2.30;99.90;;;;;;5115576;28;20177;-75
2021/12/20 07:17:17;;;;;;;25.60;15.27;;;2.10;99.90;;;;;;5101629;28;20183;-76
2021/12/20 07:19:43;;;;;;;25.83;15.67;;;2.10;99.90;;;;;;5124246;28;20184;-75
2021/12/20 07:22:08;;;;;;;27.90;15.47;;;2.10;99.90;;;;;;5122652;28;20197;-74
2021/12/20 07:24:34;;;;;;;26.70;16.83;;;2.40;99.90;;;;;;5119243;28;20533;-74
2021/12/20 07:27:00;;;;;;;29.77;16.53;;;2.40;99.90;;;;;;5120395;28;20177;-74
2021/12/20 07:29:25;;;;;;;30.70;17.67;;;2.30;99.90;;;;;;5119715;28;20649;-74
2021/12/20 07:31:51;;;;;;;30.53;16.77;;;2.40;99.90;;;;;;5120330;28;20242;-74
2021/12/20 07:34:16;;;;;;;28.30;16.27;;;2.60;99.90;;;;;;5117959;28;20252;-75
2021/12/20 07:36:42;;;;;;;26.53;15.73;;;2.50;99.90;;;;;;5117561;28;20181;-74
2021/12/20 07:39:08;;;;;;;30.50;16.80;;;2.50;99.90;;;;;;5116349;28;20240;-75
2021/12/20 07:41:33;;;;;;;29.13;16.33;;;2.40;99.90;;;;;;5117115;28;20208;-75
2021/12/20 07:43:59;;;;;;;26.80;15.57;;;2.30;99.90;;;;;;5114663;28;20189;-75
2021/12/20 07:46:25;;;;;;;28.93;15.63;;;2.30;99.90;;;;;;5113511;28;20185;-75
2021/12/20 07:48:51;;;;;;;29.27;16.77;;;2.40;99.90;;;;;;5113768;28;20200;-75
2021/12/20 07:51:17;;;;;;;28.70;17.03;;;2.50;99.90;;;;;;5112654;28;20214;-74
2021/12/20 07:53:43;;;;;;;29.37;16.07;;;2.50;99.90;;;;;;5113462;28;20203;-75
2021/12/20 07:56:09;;;;;;;29.13;16.53;;;2.60;99.90;;;;;;5131508;28;20207;-74
2021/12/20 07:58:35;;;;;;;26.07;16.17;;;2.60;99.90;;;;;;5134263;28;20180;-74
2021/12/20 08:01:01;;;;;;;26.87;16.53;;;2.60;99.90;;;;;;5123607;28;20192;-74
2021/12/20 08:03:28;;;;;;;26.30;15.00;;;2.50;99.90;;;;;;5124045;28;20216;-74
2021/12/20 08:05:53;;;;;;;28.20;15.20;;;2.50;99.90;;;;;;5124355;28;20178;-74
2021/12/20 08:08:19;;;;;;;24.23;14.27;;;2.60;99.90;;;;;;5124333;28;20591;-76
2021/12/20 08:10:45;;;;;;;25.63;14.73;;;2.50;99.90;;;;;;5133387;28;20204;-74
2021/12/20 08:13:12;;;;;;;25.60;14.80;;;2.50;99.90;;;;;;5136241;28;20177;-73
2021/12/20 08:15:38;;;;;;;26.77;15.67;;;2.60;99.90;;;;;;5136446;28;20209;-74
2021/12/20 08:18:04;;;;;;;28.50;15.63;;;2.60;99.90;;;;;;5136635;28;20233;-75
2021/12/20 08:20:30;;;;;;;23.93;15.17;;;2.60;99.90;;;;;;5135214;28;20209;-75
2021/12/20 08:22:56;;;;;;;26.23;14.87;;;2.60;99.90;;;;;;5135543;28;20205;-74
2021/12/20 08:25:22;;;;;;;27.97;15.50;;;2.70;99.90;;;;;;5136507;28;20161;-74
2021/12/20 08:27:48;;;;;;;24.83;15.27;;;2.70;99.90;;;;;;5137058;28;20169;-74
2021/12/20 08:30:14;;;;;;;25.90;15.93;;;2.70;99.90;;;;;;5127909;28;20262;-75
2021/12/20 08:32:40;;;;;;;24.20;14.20;;;2.70;99.90;;;;;;5127039;28;20177;-74
2021/12/20 08:35:08;;;;;;;23.13;14.20;;;2.80;99.90;;;;;;5130055;28;20204;-75
2021/12/20 08:37:34;;;;;;;25.97;14.37;;;2.70;99.90;;;;;;5127314;28;20192;-75
2021/12/20 08:40:00;;;;;;;27.50;16.20;;;2.80;99.90;;;;;;5116746;28;20189;-76
2021/12/20 08:42:25;;;;;;;25.57;14.93;;;2.90;99.90;;;;;;5116697;28;20213;-75
2021/12/20 08:44:51;;;;;;;26.80;15.17;;;2.90;99.90;;;;;;5116174;28;20256;-75
2021/12/20 08:47:17;;;;;;;23.67;15.30;;;2.80;99.90;;;;;;5116270;28;20177;-75
2021/12/20 08:49:43;;;;;;;28.50;14.40;;;2.90;99.90;;;;;;5115256;28;20309;-75
2021/12/20 08:52:10;;;;;;;25.83;15.50;;;2.70;99.90;;;;;;5115813;28;20665;-75
2021/12/20 08:54:35;;;;;;;28.20;15.47;;;2.70;99.90;;;;;;5115390;28;20173;-75
2021/12/20 08:57:01;;;;;;;25.43;16.00;;;2.70;99.90;;;;;;5116236;28;20177;-75
2021/12/20 08:59:26;;;;;;;27.23;16.07;;;2.70;99.90;;;;;;5115312;28;20279;-76
2021/12/20 09:01:52;;;;;;;25.37;14.83;;;2.80;99.90;;;;;;5115656;28;20204;-75
2021/12/20 09:04:18;;;;;;;26.47;15.53;;;3.00;99.90;;;;;;5115575;28;20649;-75
2021/12/20 09:06:44;;;;;;;26.97;15.57;;;3.00;99.90;;;;;;5115405;28;20551;-75
2021/12/20 09:09:13;;;;;;;27.77;16.70;;;3.00;99.90;;;;;;5115305;28;20181;-75
2021/12/20 09:11:39;;;;;;;29.67;16.20;;;3.10;99.90;;;;;;5115328;28;20195;-75
2021/12/20 09:14:05;;;;;;;28.07;15.63;;;3.10;99.90;;;;;;5115332;28;20643;-75
2021/12/20 09:16:31;;;;;;;27.53;16.87;;;3.20;99.90;;;;;;5115259;28;20198;-76
2021/12/20 09:18:56;;;;;;;27.47;16.47;;;3.10;99.90;;;;;;5114837;28;20538;-76
2021/12/20 09:21:22;;;;;;;26.03;15.93;;;3.20;99.90;;;;;;5114876;28;20454;-75
2021/12/20 09:23:48;;;;;;;26.33;16.10;;;3.00;99.90;;;;;;5115233;28;20213;-75
2021/12/20 09:26:14;;;;;;;25.97;16.53;;;3.10;99.90;;;;;;5115099;28;20169;-75
2021/12/20 09:28:39;;;;;;;27.23;16.87;;;3.10;99.90;;;;;;5115077;28;20177;-75
2021/12/20 09:31:06;;;;;;;26.60;16.70;;;3.10;99.90;;;;;;5114429;28;20622;-75
2021/12/20 09:33:32;;;;;;;30.53;16.07;;;3.30;99.90;;;;;;5115179;28;20203;-76
2021/12/20 09:35:58;;;;;;;28.87;17.17;;;3.30;99.90;;;;;;5114899;28;20610;-76
2021/12/20 09:38:24;;;;;;;31.27;16.97;;;3.40;99.90;;;;;;5114876;28;20179;-76
2021/12/20 09:43:36;;;;;;;29.30;16.43;;;3.40;99.90;;;;;;5115463;28;20208;-75
2021/12/20 09:46:02;;;;;;;35.43;19.33;;;3.40;99.90;;;;;;5119676;28;20208;-75
2021/12/20 09:48:27;;;;;;;42.20;23.07;;;3.70;99.90;;;;;;5119948;28;20177;-75
2021/12/20 09:50:53;;;;;;;39.93;22.03;;;4.00;99.90;;;;;;5120602;28;20204;-75
2021/12/20 09:53:19;;;;;;;39.27;21.63;;;4.00;99.90;;;;;;5121127;28;20201;-75
2021/12/20 09:55:46;;;;;;;31.67;19.00;;;4.60;99.90;;;;;;5122055;28;20196;-76
2021/12/20 09:58:13;;;;;;;42.43;20.83;;;5.60;1.00;;;;;;5116896;28;20654;-75
2021/12/20 10:00:39;;;;;;;31.13;17.00;;;6.70;1.00;;;;;;5114283;28;20218;-76
2021/12/20 10:03:05;;;;;;;30.33;17.57;;;6.20;1.00;;;;;;5114833;28;20257;-75
2021/12/20 10:05:31;;;;;;;24.63;16.63;;;6.90;1.00;;;;;;5114455;28;20301;-76
2021/12/20 10:07:58;;;;;;;29.20;16.60;;;6.20;1.00;;;;;;5114946;28;20184;-75
2021/12/20 10:10:45;;;;;;;26.33;16.37;;;6.00;99.90;;;;;;5113622;28;20193;-76
2021/12/20 10:13:30;;;;;;;22.77;15.20;;;6.00;99.90;;;;;;5114362;28;20169;-75
2021/12/20 10:15:57;;;;;;;25.87;16.97;;;6.10;1.00;;;;;;5114201;28;20176;-75
2021/12/20 10:18:24;;;;;;;24.77;17.47;;;6.30;1.00;;;;;;5114258;28;20201;-75
2021/12/20 10:20:56;;;;;;;23.37;16.33;;;6.50;99.90;;;;;;5113525;28;20207;-75
2021/12/20 10:23:27;;;;;;;24.93;15.83;;;7.00;1.00;;;;;;5113744;28;20204;-75
2021/12/20 10:26:00;;;;;;;21.63;15.63;;;7.70;99.90;;;;;;5114334;28;20173;-75
2021/12/20 10:28:34;;;;;;;21.70;14.00;;;7.70;1.00;;;;;;5114730;28;20181;-76
2021/12/20 10:31:09;;;;;;;19.53;13.60;;;7.60;99.90;;;;;;5113314;28;20279;-76
2021/12/20 10:33:35;;;;;;;19.67;12.40;;;7.40;99.90;;;;;;5113852;28;20184;-75
2021/12/20 10:36:13;;;;;;;16.97;12.33;;;7.60;1.00;;;;;;5113607;28;20169;-76
2021/12/20 10:38:44;;;;;;;17.00;10.70;;;7.70;1.00;;;;;;5113909;28;20172;-75
2021/12/20 10:41:14;;;;;;;19.57;12.80;;;7.30;1.00;;;;;;5112988;28;20634;-76
2021/12/20 10:43:49;;;;;;;19.57;12.03;;;6.50;1.00;;;;;;5113501;28;20305;-76
2021/12/20 10:46:16;;;;;;;20.80;13.67;;;6.20;1.00;;;;;;5113409;28;20172;-76
2021/12/20 10:48:44;;;;;;;18.43;12.93;;;6.20;99.90;;;;;;5113379;28;20245;-76
2021/12/20 10:51:23;;;;;;;22.73;13.50;;;6.40;1.00;;;;;;5112914;28;20200;-76
2021/12/20 10:53:57;;;;;;;22.67;15.10;;;6.90;99.90;;;;;;5113706;28;20184;-75
2021/12/20 10:56:23;;;;;;;24.00;15.63;;;7.00;1.00;;;;;;5112319;28;20656;-75
2021/12/20 10:58:49;;;;;;;23.53;13.77;;;6.90;1.00;;;;;;5113001;28;20177;-76
2021/12/20 11:01:36;;;;;;;20.30;14.03;;;6.30;47.60;;;;;;5112831;28;20803;-75
2021/12/20 11:04:05;;;;;;;21.13;13.20;;;6.00;1.00;;;;;;5113286;28;20212;-75
2021/12/20 11:09:21;;;;;;;20.97;13.07;;;5.60;1.00;;;;;;5113729;28;20169;-75
2021/12/20 11:11:52;;;;;;;20.90;13.07;;;5.40;1.00;;;;;;5113885;28;20246;-76
2021/12/20 11:14:21;;;;;;;20.33;12.33;;;5.20;1.00;;;;;;5113710;28;20210;-76
2021/12/20 11:16:50;;;;;;;22.70;14.07;;;5.40;1.00;;;;;;5113428;28;20172;-76
2021/12/20 11:19:19;;;;;;;25.17;14.80;;;5.20;1.00;;;;;;5112759;28;20653;-76
2021/12/20 11:21:54;;;;;;;22.50;14.47;;;5.20;1.00;;;;;;5113208;28;20200;-76
2021/12/20 11:24:22;;;;;;;21.73;12.77;;;5.10;1.00;;;;;;5113609;28;20176;-76
2021/12/20 11:26:49;;;;;;;25.03;12.83;;;5.00;1.00;;;;;;5116260;28;20165;-76
2021/12/20 11:29:15;;;;;;;26.87;15.80;;;5.40;99.90;;;;;;5115024;28;20382;-76
2021/12/20 11:31:40;;;;;;;23.33;14.37;;;5.40;99.90;;;;;;5113835;28;20188;-76
2021/12/20 11:34:07;;;;;;;20.97;13.67;;;5.50;99.90;;;;;;5112480;28;20234;-76
2021/12/20 11:36:33;;;;;;;23.27;14.10;;;6.50;1.00;;;;;;5112868;28;20177;-76
2021/12/20 11:38:59;;;;;;;20.10;12.37;;;7.00;99.90;;;;;;5113254;28;20212;-77
2021/12/20 11:41:27;;;;;;;21.77;12.37;;;8.70;3.30;;;;;;5113964;28;20562;-76
2021/12/20 11:43:54;;;;;;;16.03;10.93;;;8.50;1.00;;;;;;5116073;28;20216;-76
2021/12/20 11:46:40;;;;;;;17.50;11.73;;;8.10;1.00;;;;;;5114143;28;20204;-74
2021/12/20 11:49:06;;;;;;;16.50;10.63;;;9.20;1.00;;;;;;5112364;28;20191;-75
2021/12/20 11:51:55;;;;;;;17.80;11.27;;;8.10;1.00;;;;;;5112026;28;20612;-76
2021/12/20 11:54:37;;;;;;;19.63;11.70;;;7.70;1.00;;;;;;5113389;28;20181;-75
2021/12/20 11:57:03;;;;;;;17.13;11.73;;;6.60;1.00;;;;;;5112982;28;20185;-75
2021/12/20 11:59:52;;;;;;;17.83;12.77;;;6.30;1.00;;;;;;5111551;28;20701;-75
2021/12/20 12:02:19;;;;;;;16.23;11.90;;;6.40;2.00;;;;;;5111950;28;20292;-75
2021/12/20 12:05:28;;;;;;;19.40;12.40;;;6.80;99.90;;;;;;5111993;28;20172;-75
2021/12/20 12:07:54;;;;;;;17.77;11.53;;;6.50;1.00;;;;;;5063689;28;20181;-76
2021/12/20 12:10:28;;;;;;;24.23;13.07;;;6.50;1.00;;;;;;5111864;28;20189;-75
2021/12/20 12:13:01;;;;;;;18.37;11.63;;;6.50;1.00;;;;;;5111957;28;20181;-75
2021/12/20 12:15:43;;;;;;;17.60;11.43;;;6.60;1.00;;;;;;5111914;28;20254;-75
2021/12/20 12:18:10;;;;;;;17.33;11.93;;;6.20;1.00;;;;;;5112350;28;20181;-76
2021/12/20 12:20:52;;;;;;;18.20;11.37;;;6.40;1.00;;;;;;5111746;28;20220;-76
2021/12/20 12:23:26;;;;;;;17.23;11.20;;;6.20;99.90;;;;;;5112306;28;20677;-76
2021/12/20 12:25:55;;;;;;;18.77;11.50;;;6.20;1.00;;;;;;5111945;28;20177;-75
2021/12/20 12:28:27;;;;;;;20.03;11.43;;;5.90;99.90;;;;;;5111706;28;20535;-75
2021/12/20 12:31:06;;;;;;;19.37;11.70;;;5.60;1.00;;;;;;5111921;28;20204;-76
2021/12/20 12:33:36;;;;;;;18.83;11.47;;;5.60;1.00;;;;;;5111950;28;20253;-77
2021/12/20 12:36:20;;;;;;;17.40;11.27;;;5.80;99.90;;;;;;5111887;28;20197;-77
2021/12/20 12:38:46;;;;;;;19.93;11.63;;;5.60;1.00;;;;;;5111705;28;20185;-76
2021/12/20 12:41:20;;;;;;;20.17;11.30;;;5.80;99.90;;;;;;5111069;28;20315;-77
2021/12/20 12:43:57;;;;;;;18.97;10.40;;;6.00;1.80;;;;;;5111619;28;20219;-77
2021/12/20 12:46:41;;;;;;;20.10;10.90;;;5.90;99.90;;;;;;5111741;28;20164;-76
2021/12/20 12:49:22;;;;;;;16.30;9.93;;;6.00;1.00;;;;;;5111309;28;20173;-76
2021/12/20 12:51:51;;;;;;;16.00;9.40;;;5.80;99.90;;;;;;5111439;28;20192;-76
2021/12/20 12:54:38;;;;;;;13.07;7.63;;;5.80;99.90;;;;;;5111485;28;20536;-76
2021/12/20 12:57:12;;;;;;;15.20;8.53;;;6.00;1.00;;;;;;5121842;22;20488;-78
2021/12/20 12:59:50;;;;;;;16.13;7.90;;;6.00;99.90;;;;;;5079171;28;20268;-77
2021/12/20 13:02:23;;;;;;;15.73;9.20;;;5.80;1.00;;;;;;5075812;28;20202;-77
2021/12/20 13:04:51;;;;;;;15.33;8.90;;;5.80;99.90;;;;;;5074890;28;20659;-77